createdAt,value
2017-03-11T00:00:52.814Z,86.71
2017-03-11T00:02:03.133Z,86.33
2017-03-11T00:03:13.833Z,86.9
2017-03-11T00:04:24.523Z,86.62
2017-03-11T00:05:35.218Z,86.8
2017-03-11T00:06:45.546Z,87.28
2017-03-11T00:07:56.243Z,86.9
2017-03-11T00:09:06.943Z,86.71
2017-03-11T00:10:17.243Z,87.09
2017-03-11T00:11:27.951Z,87.24
2017-03-11T00:12:38.677Z,87.56
2017-03-11T00:13:49.387Z,87.9
2017-03-11T00:15:00.095Z,87.99
2017-03-11T00:16:10.799Z,88.37
2017-03-11T00:17:21.497Z,88.84
2017-03-11T00:18:32.181Z,89.22
2017-03-11T00:19:42.882Z,88.75
2017-03-11T00:20:53.585Z,89.59
2017-03-11T00:22:04.324Z,89.69
2017-03-11T00:23:14.230Z,89.97
2017-03-11T00:24:24.938Z,89.88
2017-03-11T00:25:35.643Z,89.78
2017-03-11T00:26:46.340Z,88.75
2017-03-11T00:27:57.060Z,87.52
2017-03-11T00:29:07.784Z,87.24
2017-03-11T00:30:18.082Z,86.86
2017-03-11T00:31:28.779Z,86.86
2017-03-11T00:32:39.487Z,86.76
2017-03-11T00:33:50.198Z,86.95
2017-03-11T00:35:00.495Z,86.76
2017-03-11T00:36:10.001Z,86.29
2017-03-11T00:37:20.782Z,86.19
2017-03-11T00:38:31.478Z,86.57
2017-03-11T00:39:42.186Z,87.33
2017-03-11T00:40:52.873Z,87.43
2017-03-11T00:42:03.567Z,87.8
2017-03-11T00:43:13.857Z,87.8
2017-03-11T00:44:24.146Z,88.93
2017-03-11T00:45:34.870Z,88.93
2017-03-11T00:46:45.571Z,88.46
2017-03-11T00:47:55.866Z,88.46
2017-03-11T00:49:06.581Z,86.95
2017-03-11T00:50:17.295Z,86.95
2017-03-11T00:51:27.982Z,86.76
2017-03-11T00:52:38.669Z,86.67
2017-03-11T00:53:49.354Z,87.33
2017-03-11T00:55:00.049Z,86.57
2017-03-11T00:56:10.357Z,86.86
2017-03-11T00:57:21.058Z,87.33
2017-03-11T00:58:31.786Z,87.43
2017-03-11T00:59:42.078Z,87.05
2017-03-11T01:00:52.768Z,86.67
2017-03-11T01:02:03.489Z,86.67
2017-03-11T01:03:13.390Z,87.24
2017-03-11T01:04:23.693Z,88.42
2017-03-11T01:05:34.390Z,88.6
2017-03-11T01:06:44.678Z,88.28
2017-03-11T01:07:55.403Z,87.24
2017-03-11T01:09:06.104Z,86.48
2017-03-11T01:10:16.424Z,86.63
2017-03-11T01:11:27.120Z,86.82
2017-03-11T01:12:37.823Z,88.04
2017-03-11T01:13:48.527Z,88.6
2017-03-11T01:14:59.244Z,88.6
2017-03-11T01:16:09.943Z,88.79
2017-03-11T01:17:20.643Z,88.7
2017-03-11T01:18:30.937Z,88.7
2017-03-11T01:19:41.625Z,88.89
2017-03-11T01:20:52.322Z,89.08
2017-03-11T01:22:03.030Z,88.51
2017-03-11T01:23:13.330Z,87.57
2017-03-11T01:24:24.032Z,87.1
2017-03-11T01:25:33.938Z,87.29
2017-03-11T01:26:44.708Z,87.29
2017-03-11T01:27:55.213Z,87.38
2017-03-11T01:29:06.107Z,87.66
2017-03-11T01:30:17.006Z,87.85
2017-03-11T01:31:27.491Z,87
2017-03-11T01:32:38.397Z,87.19
2017-03-11T01:33:49.283Z,87.57
2017-03-11T01:35:00.181Z,87.85
2017-03-11T01:36:10.658Z,89.27
2017-03-11T01:37:21.497Z,89.36
2017-03-11T01:38:32.201Z,88.6
2017-03-11T01:39:42.917Z,87.29
2017-03-11T01:40:53.611Z,87.57
2017-03-11T01:42:04.306Z,87.66
2017-03-11T01:43:15.027Z,87.66
2017-03-11T01:44:25.785Z,87.29
2017-03-11T01:45:36.486Z,88.23
2017-03-11T01:46:46.797Z,88.7
2017-03-11T01:47:57.505Z,89.36
2017-03-11T01:49:08.214Z,89.27
2017-03-11T01:50:18.911Z,89.27
2017-03-11T01:51:29.204Z,89.36
2017-03-11T01:52:39.885Z,89.55
2017-03-11T01:53:49.815Z,89.64
2017-03-11T01:55:00.107Z,88.6
2017-03-11T01:56:10.811Z,89.27
2017-03-11T01:57:21.506Z,89.08
2017-03-11T01:58:32.206Z,89.08
2017-03-11T01:59:42.908Z,89.17
2017-03-11T02:00:53.595Z,89.27
2017-03-11T02:02:04.278Z,89.36
2017-03-11T02:03:15.002Z,88.6
2017-03-11T02:04:25.699Z,89.45
2017-03-11T02:05:36.017Z,89.27
2017-03-11T02:06:46.729Z,89.45
2017-03-11T02:07:57.417Z,89.55
2017-03-11T02:09:08.125Z,88.98
2017-03-11T02:10:18.418Z,89.08
2017-03-11T02:11:28.724Z,88.6
2017-03-11T02:12:39.417Z,89.93
2017-03-11T02:13:50.106Z,92.29
2017-03-11T02:15:00.812Z,93.42
2017-03-11T02:16:11.490Z,94.18
2017-03-11T02:17:22.192Z,94.55
2017-03-11T02:18:32.495Z,94.46
2017-03-11T02:19:43.227Z,93.8
2017-03-11T02:20:53.922Z,93.47
2017-03-11T02:22:04.637Z,93.47
2017-03-11T02:23:15.342Z,93.28
2017-03-11T02:24:26.049Z,92.9
2017-03-11T02:25:36.755Z,92.33
2017-03-11T02:26:47.457Z,92.33
2017-03-11T02:27:58.172Z,92.33
2017-03-11T02:29:08.905Z,92.05
2017-03-11T02:30:19.599Z,91.3
2017-03-11T02:31:29.885Z,91.96
2017-03-11T02:32:40.606Z,92.05
2017-03-11T02:33:51.300Z,91.96
2017-03-11T02:35:02.016Z,91.3
2017-03-11T02:36:12.725Z,91.11
2017-03-11T02:37:23.023Z,91.01
2017-03-11T02:38:33.750Z,91.3
2017-03-11T02:39:44.433Z,90.64
2017-03-11T02:40:55.154Z,90.54
2017-03-11T02:42:05.459Z,90.16
2017-03-11T02:43:16.151Z,90.73
2017-03-11T02:44:26.046Z,90.73
2017-03-11T02:45:36.742Z,90.26
2017-03-11T02:46:47.429Z,90.54
2017-03-11T02:47:58.148Z,90.82
2017-03-11T02:49:08.845Z,90.45
2017-03-11T02:50:19.543Z,90.26
2017-03-11T02:51:30.243Z,90.35
2017-03-11T02:52:40.943Z,90.07
2017-03-11T02:53:51.651Z,90.35
2017-03-11T02:55:02.375Z,90.35
2017-03-11T02:56:13.094Z,90.35
2017-03-11T02:57:23.807Z,90.16
2017-03-11T02:58:34.501Z,89.97
2017-03-11T02:59:45.217Z,89.78
2017-03-11T03:00:55.919Z,89.97
2017-03-11T03:02:06.250Z,90.45
2017-03-11T03:03:16.179Z,90.45
2017-03-11T03:04:26.478Z,90.45
2017-03-11T03:05:37.196Z,89.97
2017-03-11T03:06:47.916Z,90.07
2017-03-11T03:07:58.627Z,90.26
2017-03-11T03:09:09.336Z,90.26
2017-03-11T03:10:20.041Z,90.45
2017-03-11T03:11:30.745Z,90.35
2017-03-11T03:12:41.461Z,90.73
2017-03-11T03:13:51.788Z,91.01
2017-03-11T03:15:02.489Z,91.3
2017-03-11T03:16:13.197Z,91.3
2017-03-11T03:17:23.886Z,91.67
2017-03-11T03:18:36.597Z,91.01
2017-03-11T03:19:47.315Z,91.39
2017-03-11T03:20:57.614Z,91.25
2017-03-11T03:22:07.916Z,91.44
2017-03-11T03:23:18.617Z,91.35
2017-03-11T03:24:29.307Z,91.44
2017-03-11T03:25:40.016Z,91.82
2017-03-11T03:26:50.708Z,92.19
2017-03-11T03:28:01.453Z,91.82
2017-03-11T03:29:11.760Z,92.1
2017-03-11T03:30:22.077Z,91.91
2017-03-11T03:31:32.438Z,92.29
2017-03-11T03:32:43.200Z,92.38
2017-03-11T03:33:53.902Z,93.04
2017-03-11T03:35:04.606Z,92.57
2017-03-11T03:36:14.904Z,92.85
2017-03-11T03:37:25.222Z,93.51
2017-03-11T03:38:35.919Z,93.51
2017-03-11T03:39:46.634Z,93.61
2017-03-11T03:40:57.352Z,93.8
2017-03-11T03:42:07.698Z,93.8
2017-03-11T03:43:18.383Z,93.51
2017-03-11T03:44:29.092Z,93.7
2017-03-11T03:45:39.785Z,93.7
2017-03-11T03:46:50.483Z,93.7
2017-03-11T03:48:01.179Z,93.7
2017-03-11T03:49:11.891Z,93.8
2017-03-11T03:50:22.593Z,94.55
2017-03-11T03:51:33.300Z,94.08
2017-03-11T03:52:44.018Z,94.84
2017-03-11T03:53:54.735Z,94.84
2017-03-11T03:55:05.455Z,94.18
2017-03-11T03:56:16.178Z,94.46
2017-03-11T03:57:26.876Z,93.89
2017-03-11T03:58:37.608Z,93.61
2017-03-11T03:59:48.328Z,91.63
2017-03-11T04:00:58.637Z,91.06
2017-03-11T04:02:09.339Z,90.4
2017-03-11T04:03:20.044Z,89.55
2017-03-11T04:04:30.362Z,88.6
2017-03-11T04:05:41.084Z,88.56
2017-03-11T04:06:51.794Z,89.32
2017-03-11T04:08:02.488Z,88.65
2017-03-11T04:09:12.788Z,88.28
2017-03-11T04:10:23.473Z,88.28
2017-03-11T04:11:34.213Z,88.18
2017-03-11T04:12:44.922Z,87.05
2017-03-11T04:13:55.620Z,87.24
2017-03-11T04:15:05.928Z,87.52
2017-03-11T04:16:16.273Z,88.75
2017-03-11T04:17:26.561Z,89.6
2017-03-11T04:18:37.260Z,90.73
2017-03-11T04:19:47.960Z,90.45
2017-03-11T04:20:57.474Z,90.17
2017-03-11T04:22:08.171Z,89.6
2017-03-11T04:23:18.879Z,89.6
2017-03-11T04:24:29.173Z,89.69
2017-03-11T04:25:39.884Z,90.07
2017-03-11T04:26:50.564Z,89.98
2017-03-11T04:28:01.260Z,90.73
2017-03-11T04:29:15.406Z,91.96
2017-03-11T04:30:26.110Z,91.49
2017-03-11T04:31:36.798Z,91.11
2017-03-11T04:32:47.503Z,91.11
2017-03-11T04:33:58.212Z,92.05
2017-03-11T04:35:08.928Z,92.05
2017-03-11T04:36:19.625Z,92.05
2017-03-11T04:37:29.935Z,91.58
2017-03-11T04:38:40.648Z,93.75
2017-03-11T04:39:51.358Z,95.07
2017-03-11T04:41:02.064Z,95.36
2017-03-11T04:42:12.767Z,95.26
2017-03-11T04:43:23.460Z,95.64
2017-03-11T04:44:34.182Z,95.83
2017-03-11T04:45:44.881Z,95.36
2017-03-11T04:46:55.571Z,95.45
2017-03-11T04:48:06.281Z,95.36
2017-03-11T04:49:16.979Z,95.26
2017-03-11T04:50:27.277Z,95.07
2017-03-11T04:51:37.610Z,94.79
2017-03-11T04:52:47.901Z,93.84
2017-03-11T04:53:58.218Z,94.32
2017-03-11T04:55:08.910Z,94.13
2017-03-11T04:56:19.241Z,93.94
2017-03-11T04:57:29.946Z,93.84
2017-03-11T04:58:40.640Z,93.37
2017-03-11T04:59:51.332Z,93.56
2017-03-11T05:01:02.029Z,92.71
2017-03-11T05:02:12.735Z,92.24
2017-03-11T05:03:23.435Z,92.24
2017-03-11T05:04:34.146Z,92.9
2017-03-11T05:05:44.851Z,94.41
2017-03-11T05:06:55.548Z,94.03
2017-03-11T05:08:06.264Z,94.41
2017-03-11T05:09:16.957Z,94.32
2017-03-11T05:10:27.279Z,94.6
2017-03-11T05:11:37.984Z,94.41
2017-03-11T05:12:48.688Z,94.79
2017-03-11T05:13:59.386Z,94.69
2017-03-11T05:15:10.093Z,94.13
2017-03-11T05:16:20.394Z,94.22
2017-03-11T05:17:30.697Z,94.03
2017-03-11T05:18:41.392Z,94.41
2017-03-11T05:19:52.103Z,94.22
2017-03-11T05:21:02.808Z,94.6
2017-03-11T05:22:13.517Z,94.51
2017-03-11T05:23:24.216Z,94.03
2017-03-11T05:24:34.541Z,94.41
2017-03-11T05:25:45.298Z,94.41
2017-03-11T05:26:55.994Z,93.75
2017-03-11T05:28:06.714Z,93.56
2017-03-11T05:29:17.421Z,93.65
2017-03-11T05:30:28.115Z,93.75
2017-03-11T05:31:38.862Z,93.56
2017-03-11T05:32:49.577Z,94.22
2017-03-11T05:34:00.276Z,94.41
2017-03-11T05:35:10.583Z,93.75
2017-03-11T05:36:21.271Z,94.32
2017-03-11T05:37:31.976Z,94.32
2017-03-11T05:38:42.280Z,94.6
2017-03-11T05:39:52.967Z,94.6
2017-03-11T05:41:02.887Z,94.98
2017-03-11T05:42:13.594Z,95.07
2017-03-11T05:43:24.299Z,95.07
2017-03-11T05:44:35.005Z,95.73
2017-03-11T05:45:45.686Z,95.36
2017-03-11T05:46:56.386Z,96.11
2017-03-11T05:48:07.092Z,96.11
2017-03-11T05:49:17.805Z,96.01
2017-03-11T05:50:28.127Z,95.92
2017-03-11T05:51:38.438Z,96.01
2017-03-11T05:52:49.150Z,96.2
2017-03-11T05:53:59.858Z,96.48
2017-03-11T05:55:10.557Z,96.48
2017-03-11T05:56:20.878Z,96.86
2017-03-11T05:57:31.165Z,96.3
2017-03-11T05:58:41.476Z,96.2
2017-03-11T05:59:52.189Z,96.77
2017-03-11T06:01:02.896Z,96.2
2017-03-11T06:02:12.827Z,96.01
2017-03-11T06:03:23.131Z,96.3
2017-03-11T06:04:33.437Z,95.73
2017-03-11T06:05:44.132Z,95.54
2017-03-11T06:06:54.833Z,95.54
2017-03-11T06:08:05.559Z,95.36
2017-03-11T06:09:16.268Z,95.36
2017-03-11T06:10:26.967Z,94.98
2017-03-11T06:11:37.284Z,95.17
2017-03-11T06:12:47.983Z,94.98
2017-03-11T06:13:58.686Z,94.6
2017-03-11T06:15:09.392Z,94.6
2017-03-11T06:16:19.298Z,94.6
2017-03-11T06:17:29.997Z,94.98
2017-03-11T06:18:40.730Z,94.98
2017-03-11T06:19:51.448Z,94.98
2017-03-11T06:21:02.144Z,94.98
2017-03-11T06:22:12.844Z,94.98
2017-03-11T06:23:23.559Z,94.98
2017-03-11T06:24:34.277Z,94.79
2017-03-11T06:25:45.002Z,95.17
2017-03-11T06:26:55.687Z,94.88
2017-03-11T06:28:06.385Z,94.79
2017-03-11T06:29:17.094Z,94.79
2017-03-11T06:30:27.780Z,94.79
2017-03-11T06:31:38.523Z,94.88
2017-03-11T06:32:49.240Z,94.41
2017-03-11T06:33:59.957Z,93.65
2017-03-11T06:35:10.664Z,94.22
2017-03-11T06:36:21.372Z,94.6
2017-03-11T06:37:31.684Z,95.17
2017-03-11T06:38:42.001Z,94.98
2017-03-11T06:39:52.723Z,94.98
2017-03-11T06:41:03.427Z,94.79
2017-03-11T06:42:14.144Z,94.6
2017-03-11T06:43:24.844Z,95.17
2017-03-11T06:44:35.497Z,95.07
2017-03-11T06:45:45.404Z,94.88
2017-03-11T06:46:56.122Z,95.17
2017-03-11T06:48:06.852Z,94.51
2017-03-11T06:49:17.592Z,94.41
2017-03-11T06:50:28.277Z,94.98
2017-03-11T06:51:38.586Z,94.69
2017-03-11T06:52:49.278Z,94.79
2017-03-11T06:53:59.969Z,94.22
2017-03-11T06:55:10.657Z,94.22
2017-03-11T06:56:21.380Z,94.79
2017-03-11T06:57:31.674Z,94.98
2017-03-11T06:58:42.385Z,94.79
2017-03-11T06:59:53.145Z,94.6
2017-03-11T07:01:03.834Z,94.51
2017-03-11T07:02:14.545Z,94.6
2017-03-11T07:03:25.249Z,93.84
2017-03-11T07:04:35.563Z,93.75
2017-03-11T07:05:46.256Z,93.18
2017-03-11T07:06:56.963Z,92.8
2017-03-11T07:08:07.704Z,91.96
2017-03-11T07:09:18.424Z,92.14
2017-03-11T07:10:29.115Z,91.49
2017-03-11T07:11:39.406Z,92.24
2017-03-11T07:12:50.112Z,91.67
2017-03-11T07:14:00.812Z,91.86
2017-03-11T07:15:11.534Z,91.58
2017-03-11T07:16:22.251Z,91.86
2017-03-11T07:17:32.560Z,91.86
2017-03-11T07:18:43.249Z,91.39
2017-03-11T07:19:54.255Z,91.02
2017-03-11T07:21:04.979Z,90.83
2017-03-11T07:22:15.687Z,90.12
2017-03-11T07:23:26.383Z,89.88
2017-03-11T07:24:37.077Z,89.83
2017-03-11T07:25:47.793Z,89.36
2017-03-11T07:26:58.501Z,89.08
2017-03-11T07:28:09.213Z,88.13
2017-03-11T07:29:19.927Z,87.85
2017-03-11T07:30:30.647Z,86.91
2017-03-11T07:31:41.352Z,87.48
2017-03-11T07:32:52.054Z,88.42
2017-03-11T07:34:02.760Z,88.23
2017-03-11T07:35:13.464Z,89.08
2017-03-11T07:36:23.759Z,88.32
2017-03-11T07:37:34.458Z,88.51
2017-03-11T07:38:45.232Z,88.42
2017-03-11T07:39:55.943Z,87.95
2017-03-11T07:41:06.261Z,87.76
2017-03-11T07:42:16.951Z,87.57
2017-03-11T07:43:27.662Z,87.38
2017-03-11T07:44:38.372Z,87.1
2017-03-11T07:45:49.087Z,87
2017-03-11T07:46:59.782Z,87.76
2017-03-11T07:48:10.482Z,88.7
2017-03-11T07:49:20.381Z,88.42
2017-03-11T07:50:31.081Z,88.98
2017-03-11T07:51:41.791Z,89.08
2017-03-11T07:52:52.125Z,89.17
2017-03-11T07:54:02.816Z,89.27
2017-03-11T07:55:13.149Z,89.27
2017-03-11T07:56:23.467Z,89.36
2017-03-11T07:57:33.790Z,89.36
2017-03-11T07:58:44.094Z,88.79
2017-03-11T07:59:54.795Z,88.32
2017-03-11T08:01:05.497Z,88.6
2017-03-11T08:02:15.805Z,88.7
2017-03-11T08:03:26.507Z,88.51
2017-03-11T08:04:37.196Z,88.6
2017-03-11T08:05:47.887Z,88.7
2017-03-11T08:06:58.627Z,88.79
2017-03-11T08:08:09.347Z,88.89
2017-03-11T08:09:20.038Z,88.7
2017-03-11T08:10:30.750Z,88.13
2017-03-11T08:11:40.660Z,88.04
2017-03-11T08:12:51.376Z,87.76
2017-03-11T08:14:02.085Z,87.76
2017-03-11T08:15:12.808Z,87.76
2017-03-11T08:16:23.530Z,87.66
2017-03-11T08:17:34.252Z,87.38
2017-03-11T08:18:44.567Z,87.1
2017-03-11T08:19:55.258Z,87.57
2017-03-11T08:21:05.572Z,87.48
2017-03-11T08:22:16.273Z,87.38
2017-03-11T08:23:26.968Z,86.72
2017-03-11T08:24:37.686Z,86.72
2017-03-11T08:25:48.398Z,86.25
2017-03-11T08:26:59.117Z,85.68
2017-03-11T08:28:09.821Z,85.77
2017-03-11T08:29:20.150Z,85.68
2017-03-11T08:30:30.866Z,85.59
2017-03-11T08:31:41.636Z,85.49
2017-03-11T08:32:52.336Z,85.4
2017-03-11T08:34:03.039Z,85.68
2017-03-11T08:35:13.737Z,85.77
2017-03-11T08:36:24.437Z,85.77
2017-03-11T08:37:35.147Z,85.49
2017-03-11T08:38:45.853Z,85.49
2017-03-11T08:39:56.561Z,85.49
2017-03-11T08:41:07.264Z,85.68
2017-03-11T08:42:17.975Z,85.49
2017-03-11T08:43:28.667Z,85.77
2017-03-11T08:44:39.366Z,85.59
2017-03-11T08:45:50.055Z,85.87
2017-03-11T08:47:00.768Z,85.68
2017-03-11T08:48:11.499Z,85.3
2017-03-11T08:49:21.803Z,85.49
2017-03-11T08:50:32.509Z,85.59
2017-03-11T08:51:43.211Z,85.21
2017-03-11T08:52:53.922Z,84.92
2017-03-11T08:54:04.632Z,85.49
2017-03-11T08:55:15.334Z,85.11
2017-03-11T08:56:25.660Z,84.92
2017-03-11T08:57:36.366Z,85.21
2017-03-11T08:58:47.088Z,85.11
2017-03-11T08:59:57.790Z,85.3
2017-03-11T09:01:08.504Z,85.3
2017-03-11T09:02:19.213Z,85.02
2017-03-11T09:03:29.933Z,85.02
2017-03-11T09:04:40.640Z,85.49
2017-03-11T09:05:50.951Z,85.21
2017-03-11T09:07:01.654Z,84.92
2017-03-11T09:08:12.352Z,85.02
2017-03-11T09:09:23.075Z,85.21
2017-03-11T09:10:33.782Z,84.74
2017-03-11T09:11:44.512Z,84.64
2017-03-11T09:12:55.228Z,84.74
2017-03-11T09:14:05.550Z,84.55
2017-03-11T09:15:16.284Z,84.27
2017-03-11T09:16:26.974Z,84.27
2017-03-11T09:17:37.688Z,84.5
2017-03-11T09:18:48.410Z,83.8
2017-03-11T09:19:59.117Z,84.12
2017-03-11T09:21:09.815Z,84.22
2017-03-11T09:22:20.110Z,83.65
2017-03-11T09:23:30.828Z,83.55
2017-03-11T09:24:41.547Z,82.99
2017-03-11T09:25:52.246Z,83.08
2017-03-11T09:27:02.941Z,82.89
2017-03-11T09:28:13.657Z,82.61
2017-03-11T09:29:24.369Z,82.61
2017-03-11T09:30:35.076Z,82.61
2017-03-11T09:31:45.783Z,82.7
2017-03-11T09:32:56.513Z,82.42
2017-03-11T09:34:07.212Z,81.57
2017-03-11T09:35:17.910Z,81.29
2017-03-11T09:36:28.631Z,81.2
2017-03-11T09:37:38.940Z,81.1
2017-03-11T09:38:49.678Z,80.72
2017-03-11T09:40:00.423Z,80.63
2017-03-11T09:41:10.725Z,80.34
2017-03-11T09:42:21.037Z,80.15
2017-03-11T09:43:31.365Z,79.97
2017-03-11T09:44:41.682Z,80.15
2017-03-11T09:45:52.413Z,80.25
2017-03-11T09:47:03.127Z,80.34
2017-03-11T09:48:13.838Z,80.25
2017-03-11T09:49:24.540Z,80.25
2017-03-11T09:50:34.845Z,80.06
2017-03-11T09:51:45.154Z,79.87
2017-03-11T09:52:55.855Z,80.25
2017-03-11T09:54:06.587Z,80.53
2017-03-11T09:55:17.294Z,80.06
2017-03-11T09:56:28.012Z,80.25
2017-03-11T09:57:38.750Z,79.97
2017-03-11T09:58:49.617Z,80.15
2017-03-11T10:00:00.319Z,80.15
2017-03-11T10:01:11.048Z,80.15
2017-03-11T10:02:21.766Z,79.97
2017-03-11T10:03:32.470Z,80.25
2017-03-11T10:04:42.806Z,80.15
2017-03-11T10:05:53.523Z,80.25
2017-03-11T10:07:04.218Z,79.97
2017-03-11T10:08:14.524Z,79.87
2017-03-11T10:09:25.241Z,79.49
2017-03-11T10:10:35.965Z,79.78
2017-03-11T10:11:46.306Z,79.68
2017-03-11T10:12:57.026Z,79.78
2017-03-11T10:14:07.735Z,79.78
2017-03-11T10:15:18.462Z,79.87
2017-03-11T10:16:29.152Z,79.4
2017-03-11T10:17:39.871Z,79.3
2017-03-11T10:18:50.596Z,79.44
2017-03-11T10:20:01.308Z,78.97
2017-03-11T10:21:12.019Z,78.87
2017-03-11T10:22:22.715Z,78.5
2017-03-11T10:23:33.434Z,78.5
2017-03-11T10:24:44.135Z,77.83
2017-03-11T10:25:54.832Z,78.21
2017-03-11T10:27:05.528Z,78.4
2017-03-11T10:28:16.227Z,77.74
2017-03-11T10:29:26.937Z,78.12
2017-03-11T10:30:37.657Z,77.93
2017-03-11T10:31:47.966Z,77.83
2017-03-11T10:32:58.677Z,77.17
2017-03-11T10:34:09.389Z,78.21
2017-03-11T10:35:20.099Z,77.83
2017-03-11T10:36:30.791Z,77.17
2017-03-11T10:37:41.499Z,76.7
2017-03-11T10:38:52.227Z,76.7
2017-03-11T10:40:02.932Z,76.23
2017-03-11T10:41:13.256Z,76.32
2017-03-11T10:42:23.976Z,76.42
2017-03-11T10:43:34.284Z,76.45
2017-03-11T10:44:44.585Z,76.45
2017-03-11T10:45:55.311Z,76.64
2017-03-11T10:47:06.045Z,76.45
2017-03-11T10:48:15.968Z,76.45
2017-03-11T10:49:26.671Z,76.45
2017-03-11T10:50:36.990Z,76.64
2017-03-11T10:51:47.714Z,76.55
2017-03-11T10:52:58.011Z,76.17
2017-03-11T10:54:08.734Z,76.64
2017-03-11T10:55:19.049Z,75.7
2017-03-11T10:56:29.742Z,75.23
2017-03-11T10:57:40.464Z,75.51
2017-03-11T10:58:50.772Z,75.13
2017-03-11T11:00:01.480Z,75.04
2017-03-11T11:01:12.220Z,75.32
2017-03-11T11:02:22.929Z,75.32
2017-03-11T11:03:33.654Z,74.38
2017-03-11T11:04:44.370Z,74.19
2017-03-11T11:05:55.085Z,74.57
2017-03-11T11:07:05.420Z,73.85
2017-03-11T11:08:16.140Z,73.71
2017-03-11T11:09:26.869Z,74.04
2017-03-11T11:10:37.574Z,74.04
2017-03-11T11:11:48.271Z,73.6
2017-03-11T11:12:58.987Z,72.28
2017-03-11T11:14:09.298Z,71.04
2017-03-11T11:15:19.591Z,68.71
2017-03-11T11:16:29.920Z,68.27
2017-03-11T11:17:40.638Z,67.14
2017-03-11T11:18:50.947Z,66.99
2017-03-11T11:20:01.653Z,67.55
2017-03-11T11:21:12.383Z,66.74
2017-03-11T11:22:22.691Z,65.91
2017-03-11T11:23:33.434Z,64.43
2017-03-11T11:24:44.171Z,63.51
2017-03-11T11:25:54.901Z,58.95
2017-03-11T11:27:05.605Z,58.95
2017-03-11T11:28:16.318Z,59.14
2017-03-11T11:29:27.033Z,58.29
2017-03-11T11:30:37.755Z,58.39
2017-03-11T11:31:48.479Z,57.91
2017-03-11T11:32:58.805Z,56.77
2017-03-11T11:34:09.524Z,55.76
2017-03-11T11:35:19.846Z,56.01
2017-03-11T11:36:30.572Z,56.99
2017-03-11T11:37:41.311Z,57.18
2017-03-11T11:38:51.642Z,55.88
2017-03-11T11:40:02.375Z,55.5
2017-03-11T11:41:13.103Z,55.5
2017-03-11T11:42:23.824Z,54.26
2017-03-11T11:43:34.544Z,53.91
2017-03-11T11:44:44.074Z,53.24
2017-03-11T11:45:54.820Z,53.34
2017-03-11T11:47:05.551Z,53.15
2017-03-11T11:48:15.873Z,52.01
2017-03-11T11:49:26.579Z,52.2
2017-03-11T11:50:37.323Z,51.72
2017-03-11T11:51:48.043Z,51.53
2017-03-11T11:52:58.807Z,51.53
2017-03-11T11:54:09.544Z,51.06
2017-03-11T11:55:19.482Z,50.48
2017-03-11T11:56:30.228Z,51.46
2017-03-11T11:57:40.973Z,50.79
2017-03-11T11:58:51.713Z,50.99
2017-03-11T12:00:02.447Z,50.32
2017-03-11T12:01:13.181Z,50.13
2017-03-11T12:02:23.908Z,50.51
2017-03-11T12:03:33.843Z,49.77
2017-03-11T12:04:44.555Z,49.01
2017-03-11T12:05:55.299Z,48.92
2017-03-11T12:07:06.037Z,48.44
2017-03-11T12:08:16.777Z,47.97
2017-03-11T12:09:27.514Z,48.25
2017-03-11T12:10:38.234Z,48.56
2017-03-11T12:11:48.964Z,46.47
2017-03-11T12:12:59.696Z,45.61
2017-03-11T12:14:10.416Z,46.28
2017-03-11T12:15:20.799Z,48.97
2017-03-11T12:16:31.113Z,48.04
2017-03-11T12:17:41.464Z,47.58
2017-03-11T12:18:51.816Z,47.87
2017-03-11T12:20:02.552Z,46.08
2017-03-11T12:21:13.282Z,44.74
2017-03-11T12:22:24.020Z,46.3
2017-03-11T12:23:34.740Z,43.43
2017-03-11T12:24:45.484Z,42.86
2017-03-11T12:25:56.215Z,42.36
2017-03-11T12:27:06.956Z,42.17
2017-03-11T12:28:17.687Z,41.88
2017-03-11T12:29:28.051Z,41.41
2017-03-11T12:30:38.784Z,41.2
2017-03-11T12:31:49.109Z,40.81
2017-03-11T12:32:59.826Z,41.39
2017-03-11T12:34:10.571Z,41.6
2017-03-11T12:35:21.328Z,41.88
2017-03-11T12:36:31.700Z,39.52
2017-03-11T12:37:42.433Z,40.55
2017-03-11T12:38:52.785Z,39.23
2017-03-11T12:40:03.122Z,40.28
2017-03-11T12:41:13.853Z,40.09
2017-03-11T12:42:24.565Z,40.3
2017-03-11T12:43:35.295Z,38.58
2017-03-11T12:44:46.032Z,38.58
2017-03-11T12:45:56.780Z,40.2
2017-03-11T12:47:07.547Z,40.99
2017-03-11T12:48:18.268Z,40.75
2017-03-11T12:49:29.012Z,40.77
2017-03-11T12:50:39.740Z,39.45
2017-03-11T12:51:50.466Z,38.32
2017-03-11T12:53:01.212Z,38.81
2017-03-11T12:54:11.962Z,38.26
2017-03-11T12:55:21.513Z,37.49
2017-03-11T12:56:32.240Z,36.93
2017-03-11T12:57:42.965Z,36.93
2017-03-11T12:58:53.681Z,36.26
2017-03-11T13:00:04.417Z,36.26
2017-03-11T13:01:14.357Z,36.46
2017-03-11T13:02:25.086Z,36.74
2017-03-11T13:03:35.814Z,36.47
2017-03-11T13:04:46.549Z,35.89
2017-03-11T13:05:57.279Z,35.8
2017-03-11T13:07:08.034Z,35.42
2017-03-11T13:08:18.767Z,35.61
2017-03-11T13:09:29.502Z,33.01
2017-03-11T13:10:40.245Z,31.45
2017-03-11T13:11:50.991Z,31.8
2017-03-11T13:13:01.736Z,32.93
2017-03-11T13:14:12.470Z,35.41
2017-03-11T13:15:22.795Z,36.38
2017-03-11T13:16:33.545Z,36.49
2017-03-11T13:17:43.870Z,36.04
2017-03-11T13:18:54.204Z,35.67
2017-03-11T13:20:04.938Z,34.23
2017-03-11T13:21:15.676Z,32.29
2017-03-11T13:22:26.415Z,31.98
2017-03-11T13:23:37.133Z,33.28
2017-03-11T13:24:47.884Z,34.61
2017-03-11T13:25:58.609Z,35.55
2017-03-11T13:27:09.327Z,36.58
2017-03-11T13:28:20.063Z,35.82
2017-03-11T13:29:30.377Z,36.73
2017-03-11T13:30:41.125Z,37.3
2017-03-11T13:31:51.886Z,37.38
2017-03-11T13:33:02.637Z,38.03
2017-03-11T13:34:13.363Z,39.15
2017-03-11T13:35:24.082Z,39.9
2017-03-11T13:36:34.811Z,40.75
2017-03-11T13:37:45.535Z,40.94
2017-03-11T13:38:55.873Z,40.94
2017-03-11T13:40:06.597Z,41.33
2017-03-11T13:41:17.322Z,41.33
2017-03-11T13:42:28.047Z,41.52
2017-03-11T13:43:38.369Z,42.16
2017-03-11T13:44:49.081Z,42.44
2017-03-11T13:45:59.827Z,42.64
2017-03-11T13:47:10.555Z,43.3
2017-03-11T13:48:21.269Z,43.38
2017-03-11T13:49:32.012Z,44.23
2017-03-11T13:50:42.345Z,44.26
2017-03-11T13:51:53.081Z,43.78
2017-03-11T13:53:03.834Z,43.23
2017-03-11T13:54:14.549Z,42.18
2017-03-11T13:55:24.892Z,42.35
2017-03-11T13:56:35.601Z,42.92
2017-03-11T13:57:46.329Z,43.09
2017-03-11T13:58:56.665Z,43.76
2017-03-11T14:00:06.996Z,44.21
2017-03-11T14:01:17.336Z,44.87
2017-03-11T14:02:28.065Z,44.97
2017-03-11T14:03:38.397Z,45.16
2017-03-11T14:04:48.727Z,45.45
2017-03-11T14:05:59.069Z,46.11
2017-03-11T14:07:09.790Z,46.23
2017-03-11T14:08:20.521Z,45.18
2017-03-11T14:09:31.224Z,45.01
2017-03-11T14:10:41.955Z,44.26
2017-03-11T14:11:52.683Z,44.45
2017-03-11T14:13:02.606Z,44.35
2017-03-11T14:14:13.316Z,44.45
2017-03-11T14:15:24.033Z,44.71
2017-03-11T14:16:34.751Z,44.52
2017-03-11T14:17:45.466Z,44.71
2017-03-11T14:18:56.186Z,43.87
2017-03-11T14:20:06.954Z,43.76
2017-03-11T14:21:17.698Z,43.76
2017-03-11T14:22:28.428Z,45.16
2017-03-11T14:23:39.158Z,45.45
2017-03-11T14:24:49.921Z,45.83
2017-03-11T14:26:00.657Z,46.3
2017-03-11T14:27:11.365Z,46.37
2017-03-11T14:28:22.076Z,46.75
2017-03-11T14:29:32.794Z,46.75
2017-03-11T14:30:43.513Z,46.85
2017-03-11T14:31:54.246Z,47.52
2017-03-11T14:33:04.959Z,47.42
2017-03-11T14:34:15.676Z,47.63
2017-03-11T14:35:25.598Z,46.89
2017-03-11T14:36:35.950Z,46.23
2017-03-11T14:37:46.274Z,45
2017-03-11T14:38:56.210Z,44.73
2017-03-11T14:40:06.935Z,44.73
2017-03-11T14:41:17.667Z,44.85
2017-03-11T14:42:28.395Z,43.42
2017-03-11T14:43:39.111Z,43.06
2017-03-11T14:44:49.437Z,42.96
2017-03-11T14:46:00.158Z,42.96
2017-03-11T14:47:10.893Z,42.89
2017-03-11T14:48:21.205Z,42.7
2017-03-11T14:49:31.959Z,42.32
2017-03-11T14:50:42.279Z,42.41
2017-03-11T14:51:53.038Z,42.24
2017-03-11T14:53:03.749Z,41.88
2017-03-11T14:54:14.483Z,41.24
2017-03-11T14:55:24.803Z,40.28
2017-03-11T14:56:35.533Z,39.81
2017-03-11T14:57:46.267Z,39.81
2017-03-11T14:58:56.980Z,39.52
2017-03-11T15:00:07.706Z,39.59
2017-03-11T15:01:18.423Z,40.36
2017-03-11T15:02:29.146Z,40.26
2017-03-11T15:03:39.871Z,40.44
2017-03-11T15:04:50.202Z,40.34
2017-03-11T15:06:00.531Z,40.91
2017-03-11T15:07:11.259Z,41.56
2017-03-11T15:08:21.983Z,41.82
2017-03-11T15:09:32.699Z,41.92
2017-03-11T15:10:43.427Z,42.18
2017-03-11T15:11:53.748Z,42.64
2017-03-11T15:13:03.682Z,43.02
2017-03-11T15:14:14.477Z,44.04